Time;durP1;ratioP1;P1;durP2;ratioP2;P2;SDS_P1;SDS_P2;PMS_P1;PMS_P2;Temp;Humidity;BMP_temperature;BMP_pressure;BME280_temperature;BME280_humidity;BME280_pressure;Samples;Min_cycle;Max_cycle;Signal;HPM_P1;HPM_P2
2022/03/24 00:02:13;;;;;;;47.75;26.45;;;11.40;99.90;;;;;;6260043;22;20046;-89
2022/03/24 00:04:44;;;;;;;49.97;26.58;;;11.40;99.90;;;;;;6255562;22;20043;-89
2022/03/24 00:07:16;;;;;;;48.95;26.00;;;11.40;99.90;;;;;;6280567;22;20321;-89
2022/03/24 00:09:49;;;;;;;45.47;25.35;;;11.40;99.90;;;;;;6256758;22;20041;-90
2022/03/24 00:12:21;;;;;;;46.05;26.25;;;11.40;99.90;;;;;;6280483;22;20019;-90
2022/03/24 00:14:53;;;;;;;52.90;27.60;;;11.30;99.90;;;;;;6281661;22;20098;-89
2022/03/24 00:17:30;;;;;;;47.10;26.55;;;11.30;99.90;;;;;;6282566;22;20020;-89
2022/03/24 00:20:17;;;;;;;47.15;27.45;;;11.30;99.90;;;;;;6281736;22;20046;-89
2022/03/24 00:22:50;;;;;;;52.27;28.33;;;11.20;99.90;;;;;;6282859;22;20081;-89
2022/03/24 00:25:45;;;;;;;49.55;28.98;;;11.20;99.90;;;;;;6282593;22;20047;-88
2022/03/24 00:28:23;;;;;;;48.97;26.77;;;11.20;99.90;;;;;;6281937;22;20019;-88
2022/03/24 00:31:02;;;;;;;49.25;26.50;;;11.20;99.90;;;;;;6282562;22;20426;-90
2022/03/24 00:34:02;;;;;;;52.60;27.50;;;11.10;99.90;;;;;;6309889;22;20077;-88
2022/03/24 00:36:57;;;;;;;52.20;27.52;;;11.10;99.90;;;;;;6282563;22;20072;-89
2022/03/24 00:39:41;;;;;;;54.00;28.38;;;11.10;99.90;;;;;;6259626;22;20053;-89
2022/03/24 00:42:21;;;;;;;49.20;27.85;;;11.00;99.90;;;;;;6282525;22;20015;-88
2022/03/24 00:44:51;;;;;;;54.78;31.00;;;11.00;99.90;;;;;;6258561;22;20328;-88
2022/03/24 00:47:23;;;;;;;50.60;27.00;;;11.00;99.90;;;;;;6283315;22;20110;-89
2022/03/24 00:49:50;;;;;;;56.70;30.30;;;11.00;99.90;;;;;;6282821;22;20015;-88
2022/03/24 00:52:23;;;;;;;52.75;30.42;;;10.90;99.90;;;;;;6257575;22;20402;-91
2022/03/24 00:54:58;;;;;;;52.30;29.00;;;10.90;99.90;;;;;;6281723;22;20018;-90
2022/03/24 00:57:30;;;;;;;52.70;28.02;;;10.90;99.90;;;;;;6284268;22;20015;-89
2022/03/24 00:59:58;;;;;;;52.92;27.75;;;10.90;99.90;;;;;;6282182;22;20053;-91
2022/03/24 01:02:28;;;;;;;56.40;29.27;;;10.80;99.90;;;;;;6257701;22;20022;-89
2022/03/24 01:05:01;;;;;;;55.35;30.45;;;10.80;99.90;;;;;;6257768;22;20019;-89
2022/03/24 01:07:28;;;;;;;54.80;29.42;;;10.80;99.90;;;;;;6282442;22;20030;-89
2022/03/24 01:10:07;;;;;;;51.85;28.70;;;10.70;99.90;;;;;;6256854;22;20027;-91
2022/03/24 01:12:39;;;;;;;54.85;27.52;;;10.70;99.90;;;;;;6256942;22;20358;-88
2022/03/24 01:15:16;;;;;;;52.75;27.27;;;10.70;99.90;;;;;;6255452;22;20025;-91
2022/03/24 01:17:47;;;;;;;54.08;28.02;;;10.70;99.90;;;;;;6256429;22;20023;-89
2022/03/24 01:20:19;;;;;;;57.67;28.48;;;10.60;99.90;;;;;;6283204;22;20050;-89
2022/03/24 01:22:54;;;;;;;53.35;29.77;;;10.60;99.90;;;;;;6282315;22;20025;-89
2022/03/24 01:25:28;;;;;;;56.60;29.55;;;10.60;99.90;;;;;;6257194;22;20026;-90
2022/03/24 01:28:03;;;;;;;53.03;29.20;;;10.60;99.90;;;;;;6308960;22;20019;-89
2022/03/24 01:30:38;;;;;;;56.70;29.45;;;10.50;99.90;;;;;;6281710;22;20401;-89
2022/03/24 01:33:14;;;;;;;52.17;29.42;;;10.50;99.90;;;;;;6282725;22;20393;-89
2022/03/24 01:35:57;;;;;;;55.20;27.08;;;10.50;99.90;;;;;;6258191;22;20023;-89
2022/03/24 01:38:37;;;;;;;52.70;28.17;;;10.50;99.90;;;;;;6309438;22;20026;-89
2022/03/24 01:41:26;;;;;;;49.08;27.10;;;10.40;99.90;;;;;;6281628;22;20007;-90
2022/03/24 01:44:01;;;;;;;48.35;26.95;;;10.40;99.90;;;;;;6284003;22;20042;-89
2022/03/24 01:46:52;;;;;;;53.85;28.42;;;10.40;99.90;;;;;;6281523;22;20069;-89
2022/03/24 01:49:27;;;;;;;49.17;27.52;;;10.40;99.90;;;;;;6282525;22;20019;-88
2022/03/24 01:51:55;;;;;;;54.78;28.92;;;10.30;99.90;;;;;;6256648;22;20023;-89
2022/03/24 01:54:30;;;;;;;57.50;29.80;;;10.30;99.90;;;;;;6282618;22;20039;-89
2022/03/24 01:57:05;;;;;;;56.92;29.63;;;10.30;99.90;;;;;;6281007;22;20019;-89
2022/03/24 01:59:40;;;;;;;56.17;30.25;;;10.30;99.90;;;;;;6281210;22;20076;-89
2022/03/24 02:02:11;;;;;;;58.00;29.38;;;10.30;99.90;;;;;;6255689;22;20137;-89
2022/03/24 02:04:46;;;;;;;61.45;29.85;;;10.20;99.90;;;;;;6281210;22;20080;-89
2022/03/24 02:07:24;;;;;;;53.78;29.65;;;10.20;99.90;;;;;;6282102;22;20023;-89
2022/03/24 02:09:54;;;;;;;53.47;29.35;;;10.20;99.90;;;;;;6256707;22;20073;-89
2022/03/24 02:12:24;;;;;;;51.35;28.30;;;10.20;99.90;;;;;;6281902;22;20415;-90
2022/03/24 02:14:59;;;;;;;56.50;29.23;;;10.10;99.90;;;;;;6282019;22;20018;-89
2022/03/24 02:17:30;;;;;;;53.08;28.20;;;10.10;99.90;;;;;;6281509;22;20046;-90
2022/03/24 02:19:58;;;;;;;54.53;29.67;;;10.10;99.90;;;;;;6255943;22;20346;-89
2022/03/24 02:22:28;;;;;;;59.00;30.90;;;10.10;99.90;;;;;;6281690;22;20027;-89
2022/03/24 02:24:58;;;;;;;55.40;29.83;;;10.10;99.90;;;;;;6256791;22;20019;-90
2022/03/24 02:27:32;;;;;;;57.55;31.05;;;10.10;99.90;;;;;;6281101;22;20069;-89
2022/03/24 02:30:03;;;;;;;56.28;29.20;;;10.10;99.90;;;;;;6281848;22;20117;-90
2022/03/24 02:32:30;;;;;;;61.92;29.48;;;10.00;99.90;;;;;;6281236;22;20015;-91
2022/03/24 02:35:03;;;;;;;54.20;31.42;;;10.00;99.90;;;;;;6281003;22;20377;-89
2022/03/24 02:37:35;;;;;;;55.25;29.02;;;10.00;99.90;;;;;;6282582;22;20062;-90
2022/03/24 02:40:05;;;;;;;65.82;30.50;;;10.00;99.90;;;;;;6280475;22;20021;-90
2022/03/24 02:42:33;;;;;;;52.15;30.13;;;10.00;99.90;;;;;;6281813;22;20073;-90
2022/03/24 02:45:06;;;;;;;58.53;30.50;;;10.00;99.90;;;;;;6256306;22;20430;-89
2022/03/24 02:47:36;;;;;;;62.47;31.17;;;9.90;99.90;;;;;;6255465;22;20393;-90
2022/03/24 02:50:05;;;;;;;56.30;29.98;;;9.90;99.90;;;;;;6281318;22;20033;-89
2022/03/24 02:52:35;;;;;;;57.25;30.25;;;9.90;99.90;;;;;;6280857;22;20052;-89
2022/03/24 02:55:05;;;;;;;54.33;30.08;;;9.90;99.90;;;;;;6308489;22;20019;-91
2022/03/24 02:57:33;;;;;;;53.10;29.70;;;9.80;99.90;;;;;;6282304;22;20355;-90
2022/03/24 03:00:03;;;;;;;59.25;30.45;;;9.80;99.90;;;;;;6308287;22;20098;-89
2022/03/24 03:02:35;;;;;;;51.53;29.50;;;9.80;99.90;;;;;;6281610;22;20061;-90
2022/03/24 03:05:08;;;;;;;53.92;28.20;;;9.80;99.90;;;;;;6257669;22;20073;-90
2022/03/24 03:07:41;;;;;;;56.40;30.27;;;9.80;99.90;;;;;;6256682;22;20424;-89
2022/03/24 03:10:20;;;;;;;57.58;31.40;;;9.80;99.90;;;;;;6281429;22;20020;-89
2022/03/24 03:13:00;;;;;;;56.13;29.13;;;9.80;99.90;;;;;;6257228;22;20381;-89
2022/03/24 03:15:31;;;;;;;57.65;28.05;;;9.80;99.90;;;;;;6281838;22;20023;-89
2022/03/24 03:18:10;;;;;;;54.67;29.48;;;9.70;99.90;;;;;;6256890;22;20065;-90
2022/03/24 03:20:53;;;;;;;58.90;30.33;;;9.70;99.90;;;;;;6257378;22;20015;-89
2022/03/24 03:23:31;;;;;;;55.33;28.95;;;9.70;99.90;;;;;;6257907;22;20042;-89
2022/03/24 03:26:14;;;;;;;63.45;32.38;;;9.70;99.90;;;;;;6308444;22;20016;-90
2022/03/24 03:28:53;;;;;;;52.22;27.92;;;9.70;99.90;;;;;;6281250;22;20063;-90
2022/03/24 03:31:23;;;;;;;55.35;29.48;;;9.70;99.90;;;;;;6256817;22;20069;-90
2022/03/24 03:33:53;;;;;;;62.22;32.25;;;9.60;99.90;;;;;;6308408;22;20015;-90
2022/03/24 03:36:31;;;;;;;58.05;31.42;;;9.60;99.90;;;;;;6258116;22;20339;-89
2022/03/24 03:39:00;;;;;;;54.45;29.77;;;9.60;99.90;;;;;;6255804;22;20103;-89
2022/03/24 03:41:29;;;;;;;56.20;30.60;;;9.60;99.90;;;;;;6279219;22;20041;-89
2022/03/24 03:43:59;;;;;;;57.97;30.25;;;9.60;99.90;;;;;;6281565;22;20519;-87
2022/03/24 03:46:29;;;;;;;57.00;30.23;;;9.60;99.90;;;;;;6280343;22;20019;-88
2022/03/24 03:49:00;;;;;;;62.55;30.77;;;9.50;99.90;;;;;;6280570;22;20434;-91
2022/03/24 03:51:31;;;;;;;60.03;31.38;;;9.50;99.90;;;;;;6281512;22;20430;-89
2022/03/24 03:54:01;;;;;;;60.53;30.85;;;9.50;99.90;;;;;;6282769;22;20016;-89
2022/03/24 03:56:32;;;;;;;59.00;30.55;;;9.50;99.90;;;;;;6309906;22;20012;-89
2022/03/24 03:59:06;;;;;;;61.08;30.58;;;9.50;99.90;;;;;;6258164;22;20011;-90
2022/03/24 04:01:40;;;;;;;56.70;30.10;;;9.50;99.90;;;;;;6284106;22;20061;-90
2022/03/24 04:04:15;;;;;;;59.53;31.38;;;9.40;99.90;;;;;;6282676;22;20019;-90
2022/03/24 04:06:48;;;;;;;58.65;30.30;;;9.40;99.90;;;;;;6283533;22;20072;-91
2022/03/24 04:09:21;;;;;;;62.53;32.95;;;9.40;99.90;;;;;;6258685;22;20027;-90
2022/03/24 04:12:01;;;;;;;60.38;29.23;;;9.40;99.90;;;;;;6282300;22;20070;-91
2022/03/24 04:14:35;;;;;;;61.53;31.88;;;9.40;99.90;;;;;;6257945;22;20015;-91
2022/03/24 04:17:08;;;;;;;64.33;31.47;;;9.40;99.90;;;;;;6257519;22;20320;-89
2022/03/24 04:19:38;;;;;;;62.40;29.70;;;9.30;99.90;;;;;;6282054;22;20085;-90
2022/03/24 04:22:10;;;;;;;65.97;31.27;;;9.30;99.90;;;;;;6257479;22;20069;-89
2022/03/24 04:24:45;;;;;;;63.00;32.53;;;9.30;99.90;;;;;;6258659;22;20035;-90
2022/03/24 04:27:16;;;;;;;60.33;31.88;;;9.30;99.90;;;;;;6257276;22;20019;-90
2022/03/24 04:29:47;;;;;;;64.20;32.58;;;9.30;99.90;;;;;;6257640;22;20430;-90
2022/03/24 04:32:34;;;;;;;63.42;30.25;;;9.20;99.90;;;;;;6281964;22;20101;-91
2022/03/24 04:35:02;;;;;;;65.32;31.45;;;9.20;99.90;;;;;;6256336;22;20072;-90
2022/03/24 04:37:32;;;;;;;63.92;32.78;;;9.20;99.90;;;;;;6257378;22;20019;-89
2022/03/24 04:39:59;;;;;;;63.22;33.00;;;9.20;99.90;;;;;;6281747;22;20015;-89
2022/03/24 04:42:37;;;;;;;63.13;32.00;;;9.20;99.90;;;;;;6258192;22;20015;-89
2022/03/24 04:45:06;;;;;;;63.67;30.70;;;9.10;99.90;;;;;;6281727;22;20362;-90
2022/03/24 04:47:34;;;;;;;63.22;31.55;;;9.10;99.90;;;;;;6309239;22;20073;-89
2022/03/24 04:50:05;;;;;;;60.20;31.50;;;9.10;99.90;;;;;;6282586;22;20020;-90
2022/03/24 04:52:35;;;;;;;60.88;30.38;;;9.10;99.90;;;;;;6256267;22;20027;-90
2022/03/24 04:55:08;;;;;;;64.00;33.47;;;9.10;99.90;;;;;;6257883;22;20015;-90
2022/03/24 04:57:36;;;;;;;63.63;31.45;;;9.10;99.90;;;;;;6282861;22;20043;-91
2022/03/24 05:00:10;;;;;;;69.75;32.42;;;9.00;99.90;;;;;;6282124;22;20389;-90
2022/03/24 05:02:41;;;;;;;63.95;32.67;;;9.00;99.90;;;;;;6281691;22;20080;-90
2022/03/24 05:05:20;;;;;;;67.20;33.28;;;9.00;99.90;;;;;;6282482;22;20446;-91
2022/03/24 05:07:52;;;;;;;64.88;32.30;;;9.00;99.90;;;;;;6283919;22;20442;-90
2022/03/24 05:10:30;;;;;;;67.60;33.92;;;9.00;99.90;;;;;;6308809;22;20026;-91
2022/03/24 05:12:57;;;;;;;69.25;32.08;;;9.00;99.90;;;;;;6282256;22;20074;-89
2022/03/24 05:15:29;;;;;;;64.68;30.63;;;9.00;99.90;;;;;;6281253;22;20092;-90
2022/03/24 05:17:56;;;;;;;64.35;32.45;;;8.90;99.90;;;;;;6281508;22;20496;-89
2022/03/24 05:20:28;;;;;;;64.57;32.45;;;8.90;99.90;;;;;;6282881;22;20022;-88
2022/03/24 05:22:55;;;;;;;66.75;32.20;;;8.90;99.90;;;;;;6281575;22;20024;-90
2022/03/24 05:25:22;;;;;;;67.40;32.15;;;8.90;99.90;;;;;;6281290;22;20030;-89
2022/03/24 05:27:49;;;;;;;65.75;32.05;;;8.90;99.90;;;;;;6281758;22;20015;-90
2022/03/24 05:30:16;;;;;;;68.95;33.88;;;8.80;99.90;;;;;;6256202;22;20092;-90
2022/03/24 05:32:44;;;;;;;59.92;28.92;;;8.80;99.90;;;;;;6256017;22;20023;-89
2022/03/24 05:35:13;;;;;;;61.85;31.73;;;8.80;99.90;;;;;;6280819;22;20019;-90
2022/03/24 05:37:41;;;;;;;67.20;32.20;;;8.80;99.90;;;;;;6278331;22;20101;-89
2022/03/24 05:40:09;;;;;;;58.55;30.10;;;8.80;99.90;;;;;;6280451;22;20098;-89
2022/03/24 05:42:36;;;;;;;72.95;33.97;;;8.80;99.90;;;;;;6255766;22;20078;-89
2022/03/24 05:45:04;;;;;;;64.45;31.38;;;8.80;99.90;;;;;;6256458;22;20023;-89
2022/03/24 05:47:39;;;;;;;79.63;35.90;;;8.70;99.90;;;;;;6256907;22;20027;-90
2022/03/24 05:50:13;;;;;;;65.90;32.58;;;8.70;99.90;;;;;;6256759;22;20023;-89
2022/03/24 05:53:06;;;;;;;73.65;34.38;;;8.70;99.90;;;;;;6281686;22;20030;-89
2022/03/24 05:55:37;;;;;;;70.53;33.22;;;8.70;99.90;;;;;;6280621;22;20022;-90
2022/03/24 05:58:04;;;;;;;66.45;31.95;;;8.70;99.90;;;;;;6281652;22;20019;-89
2022/03/24 06:00:31;;;;;;;69.75;32.38;;;8.70;99.90;;;;;;6256451;22;20024;-90
2022/03/24 06:03:02;;;;;;;65.80;30.17;;;8.70;99.90;;;;;;6255986;22;20029;-90
2022/03/24 06:05:29;;;;;;;69.30;32.10;;;8.60;99.90;;;;;;6281471;22;20019;-90
2022/03/24 06:08:03;;;;;;;67.88;31.88;;;8.60;99.90;;;;;;6282595;22;20069;-89
2022/03/24 06:10:33;;;;;;;59.40;30.58;;;8.60;99.90;;;;;;6256161;22;20346;-88
2022/03/24 06:13:01;;;;;;;65.30;32.80;;;8.60;99.90;;;;;;6281806;22;20070;-88
2022/03/24 06:15:30;;;;;;;68.85;32.85;;;8.60;99.90;;;;;;6257322;22;20038;-90
2022/03/24 06:18:02;;;;;;;72.07;34.95;;;8.60;99.90;;;;;;6282350;22;20038;-90
2022/03/24 06:20:30;;;;;;;66.10;32.10;;;8.60;99.90;;;;;;6281151;22;20045;-89
2022/03/24 06:22:57;;;;;;;63.45;31.75;;;8.60;99.90;;;;;;6255431;22;20092;-89
2022/03/24 06:25:24;;;;;;;61.90;32.60;;;8.60;99.90;;;;;;6308234;22;20015;-90
2022/03/24 06:27:51;;;;;;;62.20;30.65;;;8.60;99.90;;;;;;6308453;22;20019;-90
2022/03/24 06:30:21;;;;;;;65.40;32.03;;;8.60;99.90;;;;;;6307964;22;20011;-90
2022/03/24 06:32:50;;;;;;;63.13;30.65;;;8.60;99.90;;;;;;6255657;22;20027;-89
2022/03/24 06:35:19;;;;;;;66.97;31.30;;;8.60;99.90;;;;;;6281643;22;20038;-89
2022/03/24 06:37:48;;;;;;;65.38;32.05;;;8.60;99.90;;;;;;6255860;22;20015;-89
2022/03/24 06:40:15;;;;;;;63.35;30.42;;;8.60;99.90;;;;;;6255654;22;20023;-89
2022/03/24 06:42:44;;;;;;;68.10;29.98;;;8.60;99.90;;;;;;6280937;22;20015;-90
2022/03/24 06:45:13;;;;;;;60.22;29.85;;;8.60;99.90;;;;;;6280886;22;20451;-89
2022/03/24 06:47:41;;;;;;;61.17;30.02;;;8.60;99.90;;;;;;6281109;22;20015;-89
2022/03/24 06:50:12;;;;;;;61.83;30.10;;;8.60;99.90;;;;;;6280759;22;20015;-90
2022/03/24 06:52:42;;;;;;;58.47;28.88;;;8.60;99.90;;;;;;6280813;22;20011;-89
2022/03/24 06:55:12;;;;;;;56.03;28.67;;;8.60;99.90;;;;;;6281242;22;20087;-90
2022/03/24 06:57:41;;;;;;;63.42;29.20;;;8.60;99.90;;;;;;6308458;22;20062;-89
2022/03/24 07:00:14;;;;;;;56.20;26.67;;;8.60;99.90;;;;;;6307965;22;20011;-90
2022/03/24 07:02:45;;;;;;;59.55;29.80;;;8.60;99.90;;;;;;6281165;22;20015;-89
2022/03/24 07:05:13;;;;;;;61.47;29.55;;;8.60;99.90;;;;;;6255078;22;20350;-89
2022/03/24 07:07:41;;;;;;;94.18;42.88;;;8.60;99.90;;;;;;6280772;22;20027;-89
2022/03/24 07:10:09;;;;;;;57.35;29.85;;;8.60;99.90;;;;;;6254917;22;20015;-90
2022/03/24 07:12:37;;;;;;;78.47;36.22;;;8.60;99.90;;;;;;6254984;22;20019;-89
2022/03/24 07:15:11;;;;;;;105.43;42.83;;;8.70;99.90;;;;;;6281402;22;20015;-88
2022/03/24 07:17:39;;;;;;;97.00;43.60;;;8.80;99.90;;;;;;6281467;22;20015;-89
2022/03/24 07:20:07;;;;;;;101.95;43.78;;;8.90;99.90;;;;;;6254783;22;20012;-89
2022/03/24 07:22:35;;;;;;;104.15;45.30;;;9.00;99.90;;;;;;6307521;22;20015;-89
2022/03/24 07:25:06;;;;;;;95.82;45.50;;;9.00;99.90;;;;;;6254644;22;20023;-89
2022/03/24 07:27:34;;;;;;;98.38;45.33;;;9.10;99.90;;;;;;6255460;22;20473;-89
2022/03/24 07:30:04;;;;;;;112.93;47.67;;;9.10;99.90;;;;;;6280805;22;20015;-89
2022/03/24 07:32:33;;;;;;;104.00;48.33;;;9.20;99.90;;;;;;6280654;22;20023;-90
2022/03/24 07:35:00;;;;;;;123.82;52.42;;;9.20;99.90;;;;;;6254736;22;20015;-89
2022/03/24 07:37:28;;;;;;;128.50;56.15;;;9.30;99.90;;;;;;6280554;22;20334;-89
2022/03/24 07:39:56;;;;;;;121.25;52.65;;;9.40;99.90;;;;;;6279643;22;20023;-89
2022/03/24 07:42:25;;;;;;;124.78;56.78;;;9.40;99.90;;;;;;6307274;22;20102;-89
2022/03/24 07:44:52;;;;;;;127.85;52.72;;;9.50;99.90;;;;;;6307710;22;20012;-90
2022/03/24 07:47:25;;;;;;;118.85;52.58;;;9.60;99.90;;;;;;6255609;22;20381;-90
2022/03/24 07:49:56;;;;;;;124.35;56.80;;;9.60;99.90;;;;;;6255798;22;20023;-90
2022/03/24 07:52:28;;;;;;;121.10;54.55;;;9.70;99.90;;;;;;6307888;22;20064;-90
2022/03/24 07:55:05;;;;;;;140.70;58.85;;;9.60;99.90;;;;;;6308603;22;20457;-90
2022/03/24 07:57:32;;;;;;;142.52;57.90;;;9.70;99.90;;;;;;6280400;22;20019;-90
2022/03/24 08:00:04;;;;;;;117.47;50.83;;;9.80;99.90;;;;;;6307895;22;20007;-89
2022/03/24 08:02:39;;;;;;;124.63;55.10;;;9.70;99.90;;;;;;6280902;22;20024;-91
2022/03/24 08:05:12;;;;;;;127.65;53.80;;;9.80;99.90;;;;;;6258325;22;20051;-90
2022/03/24 08:07:43;;;;;;;;;;;9.70;99.90;;;;;;6308328;22;20026;-90
2022/03/24 08:10:11;;;;;;;125.78;54.03;;;9.80;99.90;;;;;;6307238;22;19946;-89
2022/03/24 08:12:40;;;;;;;129.07;55.63;;;9.80;99.90;;;;;;6280253;22;20023;-90
2022/03/24 08:15:15;;;;;;;126.07;57.40;;;9.80;99.90;;;;;;6258496;22;20015;-90
2022/03/24 08:17:45;;;;;;;128.32;56.10;;;9.90;99.90;;;;;;6281371;22;20071;-90
2022/03/24 08:20:15;;;;;;;119.70;54.38;;;10.00;99.90;;;;;;6280851;22;20323;-89
2022/03/24 08:22:42;;;;;;;126.38;58.03;;;10.00;99.90;;;;;;6280465;22;20034;-90
2022/03/24 08:25:13;;;;;;;118.65;53.60;;;10.00;99.90;;;;;;6280239;22;20028;-89
2022/03/24 08:27:40;;;;;;;120.07;55.33;;;9.90;99.90;;;;;;6307730;22;20019;-90
2022/03/24 08:30:10;;;;;;;112.95;48.80;;;10.00;99.90;;;;;;6280501;22;20015;-89
2022/03/24 08:32:37;;;;;;;119.22;52.72;;;10.10;99.90;;;;;;6280765;22;20063;-90
2022/03/24 08:35:04;;;;;;;115.03;49.22;;;10.00;99.90;;;;;;6279995;22;20081;-89
2022/03/24 08:37:32;;;;;;;129.85;54.70;;;10.10;99.90;;;;;;6281115;22;20016;-89
2022/03/24 08:40:03;;;;;;;121.78;57.90;;;10.20;99.90;;;;;;6282755;22;20011;-89
2022/03/24 08:42:31;;;;;;;112.63;52.50;;;10.30;99.90;;;;;;6281497;22;20387;-89
2022/03/24 08:44:58;;;;;;;116.15;50.72;;;10.30;99.90;;;;;;6281835;22;20045;-89
2022/03/24 08:47:26;;;;;;;114.45;52.22;;;10.20;99.90;;;;;;6309437;22;20414;-90
2022/03/24 08:49:53;;;;;;;108.60;52.10;;;10.30;99.90;;;;;;6281899;22;20068;-89
2022/03/24 08:52:21;;;;;;;120.03;53.15;;;10.40;99.90;;;;;;6309021;22;20011;-90
2022/03/24 08:54:49;;;;;;;109.28;51.97;;;10.50;99.90;;;;;;6282304;22;20012;-89
2022/03/24 08:57:26;;;;;;;102.35;50.33;;;10.60;99.90;;;;;;6282979;22;20019;-89
2022/03/24 09:00:00;;;;;;;97.03;46.03;;;10.60;99.90;;;;;;6281909;22;20015;-89
2022/03/24 09:02:28;;;;;;;97.65;45.97;;;10.60;99.90;;;;;;6282769;22;20087;-90
2022/03/24 09:05:00;;;;;;;102.95;48.85;;;10.50;99.90;;;;;;6281629;22;20023;-90
2022/03/24 09:07:34;;;;;;;111.10;50.33;;;10.70;99.90;;;;;;6257975;22;20073;-89
2022/03/24 09:10:06;;;;;;;95.10;45.50;;;10.90;99.90;;;;;;6308758;22;20023;-89
2022/03/24 09:12:37;;;;;;;98.00;46.15;;;10.90;99.90;;;;;;6281080;22;20086;-89
2022/03/24 09:15:07;;;;;;;93.35;47.30;;;11.00;99.90;;;;;;6281373;22;20019;-90
2022/03/24 09:17:36;;;;;;;102.40;48.90;;;11.10;99.90;;;;;;6281970;22;20015;-89
2022/03/24 09:20:12;;;;;;;97.20;46.38;;;11.00;99.90;;;;;;6281406;22;20019;-90
2022/03/24 09:22:42;;;;;;;95.63;44.30;;;11.00;99.90;;;;;;6257061;22;20525;-90
2022/03/24 09:25:10;;;;;;;96.43;45.00;;;11.00;99.90;;;;;;6281071;22;20051;-89
2022/03/24 09:27:38;;;;;;;100.63;45.22;;;11.10;99.90;;;;;;6308997;22;20018;-90
2022/03/24 09:30:07;;;;;;;88.60;43.58;;;11.30;99.90;;;;;;6308931;22;20023;-90
2022/03/24 09:32:37;;;;;;;91.18;45.20;;;11.30;99.90;;;;;;6258097;22;20026;-90
2022/03/24 09:35:07;;;;;;;90.70;42.30;;;11.30;99.90;;;;;;6308701;22;20026;-90
2022/03/24 09:37:37;;;;;;;83.35;40.53;;;11.30;99.90;;;;;;6282455;22;20034;-91
2022/03/24 09:40:07;;;;;;;94.15;45.13;;;11.30;99.90;;;;;;6281525;22;20027;-90
2022/03/24 09:42:34;;;;;;;84.90;39.33;;;11.30;99.90;;;;;;6256276;22;20050;-89
2022/03/24 09:45:06;;;;;;;86.00;42.70;;;11.30;99.90;;;;;;6281622;22;20086;-90
2022/03/24 09:47:36;;;;;;;78.25;39.22;;;11.40;99.90;;;;;;6282616;22;20019;-90
2022/03/24 09:50:06;;;;;;;79.50;39.92;;;11.40;99.90;;;;;;6255162;22;20019;-89
2022/03/24 09:52:36;;;;;;;81.88;40.38;;;11.50;99.90;;;;;;6257165;22;20015;-89
2022/03/24 09:55:06;;;;;;;80.03;38.28;;;11.60;99.90;;;;;;6281884;22;20102;-90
2022/03/24 09:57:34;;;;;;;75.88;38.05;;;11.50;99.90;;;;;;6282080;22;20118;-89
2022/03/24 10:00:11;;;;;;;75.00;37.25;;;11.90;99.90;;;;;;6257919;22;20392;-90
2022/03/24 10:02:39;;;;;;;73.13;36.83;;;12.00;99.90;;;;;;6281905;22;20043;-90
2022/03/24 10:05:18;;;;;;;77.82;38.00;;;12.20;99.90;;;;;;6308934;22;20438;-89
2022/03/24 10:07:46;;;;;;;77.95;37.03;;;12.20;99.90;;;;;;6281692;22;20049;-90
2022/03/24 10:10:27;;;;;;;75.93;36.55;;;12.20;99.90;;;;;;6281575;22;20031;-90
2022/03/24 10:12:54;;;;;;;64.43;32.53;;;12.30;99.90;;;;;;6256169;22;20011;-90
2022/03/24 10:15:22;;;;;;;72.65;33.45;;;12.30;99.90;;;;;;6256165;22;20033;-89
2022/03/24 10:17:57;;;;;;;66.47;32.05;;;12.40;99.90;;;;;;6280879;22;20019;-89
2022/03/24 10:20:29;;;;;;;60.88;30.95;;;12.50;99.90;;;;;;6308465;22;20016;-90
2022/03/24 10:23:06;;;;;;;59.47;30.10;;;12.50;18.00;;;;;;6282718;22;20065;-90
2022/03/24 10:25:36;;;;;;;68.18;29.52;;;12.40;1.00;;;;;;6281413;22;20055;-90
2022/03/24 10:28:08;;;;;;;61.38;29.73;;;12.30;1.00;;;;;;6257154;22;20064;-90
2022/03/24 10:30:49;;;;;;;63.45;31.77;;;12.30;1.00;;;;;;6256006;22;20023;-90
2022/03/24 10:33:32;;;;;;;61.50;29.00;;;12.60;1.00;;;;;;6309097;22;20311;-90
2022/03/24 10:36:34;;;;;;;64.55;30.88;;;12.80;1.00;;;;;;5083140;28;20397;-89
2022/03/24 10:39:05;;;;;;;59.75;29.23;;;12.70;1.00;;;;;;5049790;28;20112;-89
2022/03/24 10:41:35;;;;;;;53.35;26.92;;;12.70;1.00;;;;;;5049663;28;20499;-90
2022/03/24 10:44:12;;;;;;;60.20;27.40;;;12.80;1.00;;;;;;5049546;28;20042;-90
2022/03/24 10:46:42;;;;;;;53.95;26.65;;;12.90;1.00;;;;;;5032742;28;20049;-90
2022/03/24 10:49:16;;;;;;;49.40;26.73;;;12.90;1.00;;;;;;5049708;28;20114;-89
2022/03/24 10:52:00;;;;;;;54.85;27.33;;;13.30;1.00;;;;;;5049297;28;20045;-91
2022/03/24 10:54:50;;;;;;;50.55;25.92;;;13.40;1.00;;;;;;5049296;28;20073;-89
2022/03/24 10:57:37;;;;;;;46.75;23.83;;;13.30;1.00;;;;;;5035735;28;20148;-90
2022/03/24 11:00:09;;;;;;;37.78;21.45;;;13.40;1.00;;;;;;5033258;28;20171;-89
2022/03/24 11:02:43;;;;;;;40.63;22.20;;;13.60;1.00;;;;;;5049757;28;20398;-89
2022/03/24 11:05:16;;;;;;;41.17;23.05;;;13.80;1.00;;;;;;5034116;28;20053;-90
2022/03/24 11:07:53;;;;;;;37.92;22.75;;;13.90;1.00;;;;;;5050804;28;20052;-92
2022/03/24 11:10:31;;;;;;;47.15;23.10;;;14.00;1.00;;;;;;5048796;28;20049;-90
2022/03/24 11:13:08;;;;;;;35.97;20.65;;;14.00;1.00;;;;;;5050546;28;20045;-89
2022/03/24 11:15:50;;;;;;;43.03;23.33;;;14.00;1.00;;;;;;5050092;28;20037;-89
2022/03/24 11:18:23;;;;;;;41.08;24.33;;;14.00;1.00;;;;;;5048837;28;20384;-91
2022/03/24 11:21:02;;;;;;;46.15;23.52;;;14.00;1.00;;;;;;5032844;28;20042;-90
2022/03/24 11:23:35;;;;;;;47.78;24.08;;;14.10;1.00;;;;;;5032715;28;20045;-89
2022/03/24 11:26:07;;;;;;;42.10;24.15;;;14.30;1.00;;;;;;5048947;28;20064;-90
2022/03/24 11:28:47;;;;;;;40.47;24.38;;;14.40;1.00;;;;;;5048780;28;20049;-90
2022/03/24 11:31:15;;;;;;;42.33;24.85;;;14.40;1.00;;;;;;5049027;28;20500;-90
2022/03/24 11:33:52;;;;;;;41.42;24.42;;;14.40;1.00;;;;;;5048947;28;20045;-90
2022/03/24 11:36:36;;;;;;;52.97;25.88;;;14.40;1.00;;;;;;5050364;28;20045;-90
2022/03/24 11:39:11;;;;;;;41.70;23.05;;;14.40;1.00;;;;;;5049712;28;20067;-90
2022/03/24 11:41:46;;;;;;;45.38;23.73;;;14.40;1.00;;;;;;5048243;28;20056;-90
2022/03/24 11:44:20;;;;;;;44.92;24.48;;;14.60;1.00;;;;;;5032656;28;20044;-90
2022/03/24 11:47:02;;;;;;;51.60;25.45;;;14.70;1.00;;;;;;5040475;28;20041;-89
2022/03/24 11:49:33;;;;;;;45.83;24.13;;;14.70;1.00;;;;;;5052032;28;20068;-90
2022/03/24 11:52:09;;;;;;;45.17;24.65;;;14.70;1.00;;;;;;5035102;28;20056;-90
2022/03/24 11:54:44;;;;;;;50.15;23.70;;;14.70;1.00;;;;;;5034949;28;20092;-90
2022/03/24 11:57:45;;;;;;;44.53;23.20;;;14.70;1.00;;;;;;5036470;28;20030;-90
2022/03/24 12:00:36;;;;;;;;;;;;;;;;;;;;;
2022/03/24 12:03:42;;;;;;;40.25;23.25;;;14.80;1.00;;;;;;5015617;28;20046;-91
2022/03/24 12:06:16;;;;;;;43.78;22.85;;;14.90;1.00;;;;;;5034828;28;20050;-90
2022/03/24 12:09:04;;;;;;;41.75;22.02;;;15.00;1.00;;;;;;5034989;28;20045;-90
2022/03/24 12:11:31;;;;;;;43.92;24.27;;;15.10;1.00;;;;;;5034756;28;20416;-90
2022/03/24 12:14:26;;;;;;;36.75;23.15;;;15.10;1.00;;;;;;5034767;28;20041;-90
2022/03/24 12:17:31;;;;;;;53.10;24.00;;;15.00;1.00;;;;;;5021553;28;20052;-91
2022/03/24 12:20:29;;;;;;;47.25;25.00;;;15.00;1.00;;;;;;5020905;28;20042;-90
2022/03/24 12:24:04;;;;;;;46.90;24.05;;;15.00;1.00;;;;;;5035939;28;20056;-90
2022/03/24 12:27:05;;;;;;;48.25;25.17;;;15.10;1.00;;;;;;5034568;28;20053;-90
2022/03/24 12:30:12;;;;;;;49.78;23.95;;;15.20;1.00;;;;;;5019912;28;20466;-90
2022/03/24 12:33:11;;;;;;;38.60;20.80;;;15.30;1.00;;;;;;5035343;28;20045;-91
2022/03/24 12:36:18;;;;;;;49.05;24.13;;;15.30;1.00;;;;;;5034148;28;20073;-91
2022/03/24 12:39:12;;;;;;;49.20;24.45;;;15.40;1.00;;;;;;5034990;28;20076;-91
2022/03/24 12:42:32;;;;;;;51.10;23.30;;;15.40;1.00;;;;;;5018764;28;20045;-90
2022/03/24 12:45:51;;;;;;;48.42;23.65;;;15.50;1.00;;;;;;5019049;28;20135;-90
2022/03/24 12:48:49;;;;;;;50.92;26.10;;;15.60;1.00;;;;;;5035315;28;20041;-90
2022/03/24 12:52:33;;;;;;;44.40;23.55;;;15.40;1.00;;;;;;5050389;28;20041;-89
2022/03/24 12:59:56;;;;;;;52.50;25.95;;;15.60;1.00;;;;;;5017928;28;20080;-91
2022/03/24 13:07:41;;;;;;;50.05;24.83;;;15.70;1.00;;;;;;4915821;28;20134;-90
2022/03/24 13:11:04;;;;;;;55.00;24.05;;;15.60;1.00;;;;;;4972296;28;20133;-90
2022/03/24 13:13:55;;;;;;;;;;;15.80;1.00;;;;;;4973957;28;20051;-90
2022/03/24 13:16:25;;;;;;;47.78;24.70;;;15.80;1.00;;;;;;4973886;28;19922;-90
2022/03/24 13:19:50;;;;;;;;;;;;;;;;;;;;;
2022/03/24 13:27:05;;;;;;;47.83;23.77;;;15.90;1.00;;;;;;4954557;29;20062;-91
2022/03/24 13:29:44;;;;;;;46.13;25.15;;;16.00;1.00;;;;;;4938119;29;20044;-91